My Meet Scores
Carly Nguyen, St. Charles Gymnastics Academy - MyMeetScores.com
Top100 | Top Teams | Upcoming Meets | Completed Meets | Latest | Add Scores | Help| Support | Bookmark and Share

Carly Nguyen, St. Charles Gymnastics Academy
Personal Bests
LevelVault BarsBeamFloorAA
39.4009.325 9.2009.37537.150
48.8759.600 9.4009.45036.900
69.2009.425 9.6009.62537.375
78.9509.650 9.5509.55037.450
88.9259.400 9.4509.60037.300
Meet Scores
Date Meet Team Session Level Division Vault Bars Beam Floor AA
2020-02-28 MEGA Spring Invite 2020 St. Charles Gymnastics Academy 5 8 Junior B 8.550 12 9.275 4 8.975 7 9.375 2 36.175 4
2020-02-21 Great Western Invitational - Women's St. Charles Gymnastics Academy 12 8 Cowgirl 8.900 6 9.400 2 8.700 11 9.375 1 36.375 3
2020-01-10 St Jude Benefit Meet St. Charles Gymnastics Academy 9C 8 Jr B 8.875 6 9.375 4 9.450 3* 9.600 3* 37.300 2T
2019-12-13 2019 St Nick St. Charles Gymnastics Academy 3 8 JrB 8.925 5 8.875 7T 8.500 8 9.350 3 35.650 3
2019-03-29 Illinois Level 7 & 8 State Meet St. Charles Gymnastics Academy 7 7 Jr E 8.950 19T 9.400 7T 9.500 3 9.550 5T 37.400 6
2019-02-15 Women's Midwest Open St. Charles Gymnastics Academy 04 7 Junior A 8.400 11 9.600 6T 9.250 5 9.175 7T 36.425 8
2019-01-11 St Jude Benefit Meet St. Charles Gymnastics Academy 4B 7 Jr B 8.500 13 9.550 3 9.350 3 9.425 9 36.825 7
2018-12-07 St. Nick Invite 2018 St. Charles Gymnastics Academy 6B 7 JrA 8.900 4 9.650 1 9.550 3 9.350 6T 37.450 3
2018-03-16 2018 Illinois Level 6, 9, 10 State Championships St. Charles Gymnastics Academy 08 6 Ch D 9.000 12T 9.425 3 9.375 6 9.575 5 37.375 7
2018-02-23 Kinetic Classic St. Charles Gymnastics Academy 9 6 Younger 8.900 34T 8.925 46T 9.600 2 9.625 6T 37.050 13T
2018-02-16 Big Classic St. Charles Gymnastics Academy 1A 6 Junior B 8.450 13 9.300 2 9.550 2 9.475 4 36.775 3
2018-01-12 St Jude Benefit Meet St. Charles Gymnastics Academy 4C 6 JrB 8.650 9T 9.250 1T 9.300 2 9.400 1 36.600 3T
2017-12-14 2017 Women's Hawaiian Pineapple Classic St. Charles Gymnastics Academy 9A 6 Ages10U 8.575 16 9.050 8T 9.300 6 9.400 8T 36.325 8
2017-12-01 Ultimate Wish Classic St. Charles Gymnastics Academy 9 6 JR 8.775 6 9.350 1 9.150 1T 9.575 1 36.850 1
2017-11-17 SCGA Classic St. Charles Gymnastics Academy 3 6 JrB 9.200 6 9.400 1 9.150 6 9.450 3 37.200 2
2017-03-10 2017 Illinois Level 4 State Championships Legacy Elite Gymnastics LLC 3 4 Youth C 8.500 25T 9.325 6 9.275 8 8.950 13T 36.050 12
2017-02-17 Big Classic Legacy Elite Gymnastics LLC B 4 Child C 8.850 20T 9.300 10 9.400 5T 9.350 3 36.900 5T
2017-02-03 St. Valentines Classic Womens Legacy Elite Gymnastics LLC 3A 4 7-9 yrs. 8.350 12T 9.450 3T 9.200 8 8.850 13 35.850 6T
2017-01-27 Circle Of Stars Gymnastics Invitational Legacy Elite Gymnastics LLC D18 4 Jr B 8.875 4T 9.150 5 8.700 6T 9.150 5 35.875 6
2017-01-13 Legacy Elite Winter Classic Legacy Elite Gymnastics LLC B4 4 ChB 8.300 9 8.825 12 9.125 7 9.450 3 35.700 9
2017-01-05 Leenda's Island Adventure Legacy Elite Gymnastics LLC P10 4 9 Year Old 8.325 7 9.600 1 8.725 6 9.025 2 35.675 4
2016-03-04 2016 Illinois Level 3 State Championships GymNasti 3 Youth-F 9.325 8 9.325 5 8.925 7 9.375 4 36.950 6
2016-02-19 Midwest Open Womens 2016 GymNasti 1A 3 8 9.400 6 9.250 4 9.150 3 9.350 2 37.150 2
2016-01-22 King Arthur Invitational GymNasti S13 3 Jr.B 9.300 4 8.925 8 9.200 6 9.150 8 36.575 6
2015-12-04 2015 Ultimate Wish Classic GymNasti 11B 3 All 8.775 52 9.125 22 8.725 37 9.000 48 35.625 40
Get your scores on
a t-shirt, pin, or hoodie

www.lazysuits.com